Time;durP1;ratioP1;P1;durP2;ratioP2;P2;SDS_P1;SDS_P2;PMS_P1;PMS_P2;Temp;Humidity;BMP_temperature;BMP_pressure;BME280_temperature;BME280_humidity;BME280_pressure;Samples;Min_cycle;Max_cycle;Signal;HPM_P1;HPM_P2
2024/03/13 00:01:54;;;;;;;58.35;28.88;;;11.60;99.90;;;;;;5019245;28;20041;-76
2024/03/13 00:04:20;;;;;;;69.43;30.40;;;11.70;99.90;;;;;;5015986;28;20075;-78
2024/03/13 00:06:50;;;;;;;56.38;27.65;;;11.70;99.90;;;;;;5017169;28;20049;-78
2024/03/13 00:09:18;;;;;;;74.78;33.45;;;11.70;99.90;;;;;;5018615;28;20497;-78
2024/03/13 00:11:43;;;;;;;58.58;27.38;;;11.80;99.90;;;;;;5013721;28;20022;-77
2024/03/13 00:14:09;;;;;;;59.30;27.75;;;11.70;99.90;;;;;;5012636;28;20030;-76
2024/03/13 00:16:35;;;;;;;40.05;21.70;;;11.80;99.90;;;;;;5017040;28;20030;-76
2024/03/13 00:19:03;;;;;;;71.72;30.38;;;11.80;99.90;;;;;;5013116;28;20472;-76
2024/03/13 00:21:35;;;;;;;97.65;34.38;;;11.80;99.90;;;;;;5012064;28;20026;-77
2024/03/13 00:24:02;;;;;;;80.75;33.65;;;11.80;99.90;;;;;;5011921;28;20013;-76
2024/03/13 00:26:29;;;;;;;92.65;34.33;;;11.80;99.90;;;;;;5020330;28;20029;-76
2024/03/13 00:28:54;;;;;;;64.10;29.83;;;11.80;99.90;;;;;;5016800;28;20516;-76
2024/03/13 00:31:20;;;;;;;60.25;29.85;;;11.80;99.90;;;;;;5034858;28;20034;-76
2024/03/13 00:33:46;;;;;;;96.55;35.28;;;11.80;99.90;;;;;;5035041;28;20021;-76
2024/03/13 00:36:12;;;;;;;76.53;32.45;;;11.80;99.90;;;;;;5034521;28;20029;-76
2024/03/13 00:38:37;;;;;;;63.40;31.20;;;11.80;99.90;;;;;;5034542;28;20485;-76
2024/03/13 00:41:03;;;;;;;72.50;31.83;;;11.80;99.90;;;;;;5034230;28;20496;-76
2024/03/13 00:43:30;;;;;;;60.88;28.98;;;11.90;99.90;;;;;;5035074;28;20022;-76
2024/03/13 00:45:56;;;;;;;66.55;30.35;;;11.90;99.90;;;;;;5034653;28;20033;-76
2024/03/13 00:48:22;;;;;;;68.78;29.83;;;11.90;99.90;;;;;;5034771;28;20064;-76
2024/03/13 00:50:51;;;;;;;58.47;28.65;;;12.00;99.90;;;;;;5035056;28;20029;-76
2024/03/13 00:53:16;;;;;;;61.40;27.27;;;12.00;99.90;;;;;;5016975;28;20040;-76
2024/03/13 00:55:42;;;;;;;53.38;25.45;;;12.10;99.90;;;;;;5034699;28;20521;-76
2024/03/13 00:58:08;;;;;;;61.08;29.17;;;12.10;99.90;;;;;;5034219;28;20013;-76
2024/03/13 01:00:38;;;;;;;66.80;28.23;;;12.10;99.90;;;;;;5033935;28;20096;-76
2024/03/13 01:03:05;;;;;;;59.17;27.77;;;12.20;99.90;;;;;;5007804;28;20487;-76
2024/03/13 01:05:31;;;;;;;59.83;28.05;;;12.20;99.90;;;;;;5025431;28;20545;-77
2024/03/13 01:07:57;;;;;;;56.10;26.35;;;12.20;99.90;;;;;;5034325;28;20109;-76
2024/03/13 01:10:27;;;;;;;71.82;29.83;;;12.30;99.90;;;;;;5034323;28;20032;-76
2024/03/13 01:12:54;;;;;;;58.17;26.63;;;12.30;99.90;;;;;;5034502;28;20021;-76
2024/03/13 01:15:20;;;;;;;54.72;25.40;;;12.30;99.90;;;;;;5016632;28;20026;-77
2024/03/13 01:17:46;;;;;;;45.45;22.98;;;12.30;99.90;;;;;;5034394;28;20112;-76
2024/03/13 01:20:18;;;;;;;42.20;22.30;;;12.30;99.90;;;;;;5034537;28;20026;-77
2024/03/13 01:22:47;;;;;;;60.97;26.30;;;12.40;99.90;;;;;;5034150;28;20063;-77
2024/03/13 01:25:14;;;;;;;55.78;25.55;;;12.40;99.90;;;;;;5034211;28;20029;-77
2024/03/13 01:27:42;;;;;;;51.75;24.88;;;12.40;99.90;;;;;;5033799;28;20179;-77
2024/03/13 01:30:09;;;;;;;57.45;24.70;;;12.40;99.90;;;;;;5033838;28;20493;-77
2024/03/13 01:32:35;;;;;;;43.80;22.25;;;12.50;99.90;;;;;;5016494;28;20017;-77
2024/03/13 01:35:01;;;;;;;45.55;20.58;;;12.50;99.90;;;;;;5032838;28;20555;-76
2024/03/13 01:40:18;;;;;;;38.38;20.45;;;12.50;99.90;;;;;;5033953;28;20033;-77
2024/03/13 01:57:15;;;;;;;41.63;18.48;;;12.50;99.90;;;;;;5033579;28;20512;-77
2024/03/13 02:02:22;;;;;;;42.05;19.52;;;12.50;99.90;;;;;;5033065;28;20087;-77
2024/03/13 02:02:36;;;;;;;38.90;17.90;;;12.50;99.90;;;;;;5033413;28;20029;-77
2024/03/13 02:05:02;;;;;;;42.00;19.52;;;12.50;99.90;;;;;;5015971;28;20049;-77
2024/03/13 02:07:29;;;;;;;34.20;18.13;;;12.50;99.90;;;;;;5033274;28;20501;-79
2024/03/13 02:09:55;;;;;;;34.42;19.30;;;12.50;99.90;;;;;;5033565;28;20025;-78
2024/03/13 02:12:21;;;;;;;41.47;19.55;;;12.60;99.90;;;;;;5033346;28;20033;-78
2024/03/13 02:14:47;;;;;;;44.22;19.77;;;12.50;99.90;;;;;;5015513;28;20052;-78
2024/03/13 02:17:13;;;;;;;42.05;18.45;;;12.60;99.90;;;;;;5033115;28;20474;-78
2024/03/13 02:19:40;;;;;;;36.53;17.73;;;12.50;99.90;;;;;;5033378;28;20024;-78
2024/03/13 02:22:07;;;;;;;41.35;18.55;;;12.60;99.90;;;;;;5033068;28;20026;-79
2024/03/13 02:24:35;;;;;;;45.30;21.02;;;12.60;99.90;;;;;;5033275;28;20040;-77
2024/03/13 02:27:10;;;;;;;45.42;20.15;;;12.50;99.90;;;;;;5032789;28;20478;-77
2024/03/13 02:29:37;;;;;;;44.13;20.30;;;12.60;99.90;;;;;;5032946;28;20017;-76
2024/03/13 02:32:04;;;;;;;47.15;21.40;;;12.60;99.90;;;;;;5032986;28;20540;-76
2024/03/13 02:34:30;;;;;;;37.38;19.23;;;12.50;99.90;;;;;;5033017;28;20022;-77
2024/03/13 02:36:56;;;;;;;46.22;21.27;;;12.50;99.90;;;;;;5015289;28;20023;-75
2024/03/13 02:39:23;;;;;;;52.67;22.88;;;12.50;99.90;;;;;;5033083;28;20116;-76
2024/03/13 02:41:49;;;;;;;45.47;20.95;;;12.60;99.90;;;;;;5015235;28;20435;-76
2024/03/13 02:44:15;;;;;;;49.97;22.50;;;12.50;99.90;;;;;;5032394;28;20057;-76
2024/03/13 02:46:43;;;;;;;51.55;22.45;;;12.60;99.90;;;;;;5032171;28;20509;-77
2024/03/13 02:49:09;;;;;;;59.63;24.27;;;12.60;99.90;;;;;;5032691;28;20033;-76
2024/03/13 02:51:35;;;;;;;63.75;25.08;;;12.60;99.90;;;;;;5032595;28;21536;-77
2024/03/13 02:54:00;;;;;;;56.50;24.15;;;12.60;99.90;;;;;;5032558;28;20100;-77
2024/03/13 02:56:26;;;;;;;64.18;25.13;;;12.50;99.90;;;;;;5031746;28;20041;-76
2024/03/13 02:58:52;;;;;;;58.63;24.38;;;12.50;99.90;;;;;;5032183;28;20528;-76
2024/03/13 03:01:18;;;;;;;61.60;24.90;;;12.60;99.90;;;;;;5032577;28;20445;-77
2024/03/13 03:03:43;;;;;;;61.75;24.25;;;12.60;99.90;;;;;;5032584;28;20041;-78
2024/03/13 03:06:09;;;;;;;68.65;25.75;;;12.50;99.90;;;;;;5031970;28;20025;-76
2024/03/13 03:08:40;;;;;;;86.57;28.77;;;12.50;99.90;;;;;;5014733;28;20072;-78
2024/03/13 03:11:06;;;;;;;73.13;27.23;;;12.60;99.90;;;;;;5032113;28;20017;-77
2024/03/13 03:13:35;;;;;;;62.38;26.40;;;12.70;99.90;;;;;;5013971;28;20124;-77
2024/03/13 03:16:01;;;;;;;72.15;27.45;;;12.70;99.90;;;;;;5030788;28;20105;-78
2024/03/13 03:18:27;;;;;;;66.57;24.83;;;12.60;99.90;;;;;;5030362;28;20104;-77
2024/03/13 03:20:53;;;;;;;68.70;26.25;;;12.60;99.90;;;;;;5014174;28;20120;-77
2024/03/13 03:23:19;;;;;;;60.72;23.30;;;12.60;99.90;;;;;;5031318;28;20116;-77
2024/03/13 03:25:45;;;;;;;51.80;23.67;;;12.60;99.90;;;;;;5013941;28;20550;-77
2024/03/13 03:28:13;;;;;;;60.75;25.67;;;12.60;99.90;;;;;;5032326;28;20080;-78
2024/03/13 03:30:43;;;;;;;66.30;24.50;;;12.50;99.90;;;;;;5031950;28;20006;-78
2024/03/13 03:33:18;;;;;;;71.38;26.50;;;12.50;99.90;;;;;;5032089;28;20029;-79
2024/03/13 03:35:44;;;;;;;67.95;26.85;;;12.50;99.90;;;;;;5031116;28;20075;-78
2024/03/13 03:38:09;;;;;;;66.28;26.58;;;12.60;99.90;;;;;;5030370;28;20029;-78
2024/03/13 03:40:35;;;;;;;64.47;26.92;;;12.60;99.90;;;;;;5030417;28;20512;-77
2024/03/13 03:43:01;;;;;;;72.97;27.70;;;12.50;99.90;;;;;;5014014;28;20509;-77
2024/03/13 03:45:28;;;;;;;56.42;25.70;;;12.60;99.90;;;;;;5031940;28;20409;-77
2024/03/13 03:47:54;;;;;;;62.53;27.13;;;12.60;99.90;;;;;;5031819;28;20044;-77
2024/03/13 03:50:20;;;;;;;62.13;26.77;;;12.50;99.90;;;;;;5013976;28;20017;-77
2024/03/13 03:52:47;;;;;;;54.90;25.88;;;12.50;99.90;;;;;;5032204;28;20057;-83
2024/03/13 03:55:17;;;;;;;69.97;28.60;;;12.50;99.90;;;;;;5031502;28;20104;-80
2024/03/13 03:57:43;;;;;;;69.65;27.25;;;12.50;99.90;;;;;;5032629;28;20079;-78
2024/03/13 04:00:11;;;;;;;67.85;28.42;;;12.60;99.90;;;;;;5022841;28;20021;-78
2024/03/13 04:02:37;;;;;;;75.05;28.60;;;12.60;99.90;;;;;;5035699;28;20036;-78
2024/03/13 04:05:06;;;;;;;75.05;31.65;;;12.60;99.90;;;;;;5035992;28;20028;-77
2024/03/13 04:07:32;;;;;;;80.30;31.52;;;12.60;99.90;;;;;;5035075;28;20041;-78
2024/03/13 04:09:58;;;;;;;66.97;28.83;;;12.50;99.90;;;;;;5017855;28;20397;-78
2024/03/13 04:12:24;;;;;;;78.18;32.20;;;12.50;99.90;;;;;;5034591;28;20033;-76
2024/03/13 04:14:50;;;;;;;76.63;30.20;;;12.50;99.90;;;;;;5035483;28;20064;-78
2024/03/13 04:17:17;;;;;;;78.70;29.92;;;12.60;99.90;;;;;;5035790;28;20037;-78
2024/03/13 04:19:43;;;;;;;71.65;28.75;;;12.60;99.90;;;;;;5035967;28;20017;-77
2024/03/13 04:22:09;;;;;;;70.72;29.08;;;12.50;99.90;;;;;;5035222;28;20112;-77
2024/03/13 04:24:35;;;;;;;76.68;28.23;;;12.50;99.90;;;;;;5035410;28;20052;-79
2024/03/13 04:27:01;;;;;;;71.30;27.60;;;12.50;99.90;;;;;;5017583;28;20045;-77
2024/03/13 04:29:27;;;;;;;74.85;28.55;;;12.40;99.90;;;;;;5035614;28;20497;-78
2024/03/13 04:31:53;;;;;;;73.93;28.88;;;12.40;99.90;;;;;;5035283;28;20025;-77
2024/03/13 04:34:19;;;;;;;70.75;27.58;;;12.50;99.90;;;;;;5035425;28;20021;-77
2024/03/13 04:36:46;;;;;;;61.78;25.92;;;12.40;99.90;;;;;;5035045;28;20025;-77
2024/03/13 04:39:11;;;;;;;68.53;26.35;;;12.50;99.90;;;;;;5035316;28;20222;-78
2024/03/13 04:41:41;;;;;;;64.55;25.63;;;12.50;99.90;;;;;;5035030;28;20029;-78
2024/03/13 04:44:10;;;;;;;68.03;27.23;;;12.50;99.90;;;;;;5034333;28;20054;-78
2024/03/13 04:46:37;;;;;;;64.75;25.33;;;12.50;99.90;;;;;;5034873;28;20033;-77
2024/03/13 04:49:08;;;;;;;67.03;25.92;;;12.40;99.90;;;;;;5035311;28;20032;-77
2024/03/13 04:51:34;;;;;;;65.15;25.85;;;12.40;99.90;;;;;;5035177;28;20029;-76
2024/03/13 04:53:59;;;;;;;61.45;25.27;;;12.40;99.90;;;;;;5017316;28;20028;-78
2024/03/13 04:56:25;;;;;;;68.18;26.38;;;12.40;99.90;;;;;;5034624;28;20467;-77
2024/03/13 04:58:51;;;;;;;64.55;25.75;;;12.50;99.90;;;;;;5028469;28;20466;-77
2024/03/13 05:01:17;;;;;;;69.40;25.33;;;12.50;99.90;;;;;;5008135;28;20044;-76
2024/03/13 05:03:43;;;;;;;59.85;26.00;;;12.50;99.90;;;;;;5034967;28;20021;-76
2024/03/13 05:06:09;;;;;;;64.85;26.65;;;12.50;99.90;;;;;;5034317;28;20160;-77
2024/03/13 05:08:35;;;;;;;58.28;25.60;;;12.60;99.90;;;;;;5034389;28;20029;-76
2024/03/13 05:11:00;;;;;;;59.60;23.92;;;12.60;99.90;;;;;;5034524;28;20451;-76
2024/03/13 05:13:26;;;;;;;55.97;23.52;;;12.60;99.90;;;;;;5034828;28;20491;-76
2024/03/13 05:15:52;;;;;;;55.88;24.55;;;12.60;99.90;;;;;;5034695;28;20497;-77
2024/03/13 05:18:19;;;;;;;66.20;26.38;;;12.60;99.90;;;;;;5034827;28;20401;-76
2024/03/13 05:20:45;;;;;;;63.97;25.35;;;12.60;99.90;;;;;;5034589;28;20031;-76
2024/03/13 05:23:11;;;;;;;59.40;23.92;;;12.60;99.90;;;;;;5034588;28;20420;-76
2024/03/13 05:25:37;;;;;;;53.88;23.83;;;12.60;99.90;;;;;;5034441;28;20017;-77
2024/03/13 05:28:03;;;;;;;65.78;25.00;;;12.70;99.90;;;;;;5034296;28;20072;-76
2024/03/13 05:30:29;;;;;;;60.90;23.23;;;12.60;99.90;;;;;;5034553;28;20063;-76
2024/03/13 05:32:56;;;;;;;57.70;23.58;;;12.60;99.90;;;;;;5034483;28;20029;-76
2024/03/13 05:35:23;;;;;;;59.92;24.58;;;12.60;99.90;;;;;;5034025;28;20021;-76
2024/03/13 05:37:49;;;;;;;71.55;26.65;;;12.60;99.90;;;;;;5034041;28;20032;-77
2024/03/13 05:40:19;;;;;;;74.78;28.08;;;12.60;99.90;;;;;;5033958;28;20028;-77
2024/03/13 05:42:45;;;;;;;79.32;30.20;;;12.60;99.90;;;;;;5034275;28;20057;-76
2024/03/13 05:45:11;;;;;;;74.78;29.65;;;12.50;99.90;;;;;;5034510;28;20017;-76
2024/03/13 05:47:38;;;;;;;79.82;33.35;;;12.50;99.90;;;;;;5034167;28;20033;-76
2024/03/13 05:50:04;;;;;;;79.47;35.65;;;12.50;99.90;;;;;;5034197;28;20446;-76
2024/03/13 05:52:30;;;;;;;81.10;33.42;;;12.50;99.90;;;;;;4999068;28;20033;-76
2024/03/13 05:54:56;;;;;;;87.97;37.15;;;12.50;99.90;;;;;;5031159;28;20444;-76
2024/03/13 05:57:24;;;;;;;88.95;37.08;;;12.60;99.90;;;;;;5034058;28;20390;-77
2024/03/13 05:59:50;;;;;;;109.10;38.28;;;12.60;99.90;;;;;;5033805;28;20049;-76
2024/03/13 06:02:16;;;;;;;97.90;38.17;;;12.60;99.90;;;;;;5034067;28;20459;-76
2024/03/13 06:04:42;;;;;;;96.45;40.40;;;12.50;99.90;;;;;;5033790;28;20025;-77
2024/03/13 06:07:08;;;;;;;89.10;36.53;;;12.50;99.90;;;;;;5033507;28;20033;-77
2024/03/13 06:09:36;;;;;;;97.32;37.65;;;12.50;99.90;;;;;;5033312;28;20520;-77
2024/03/13 06:12:02;;;;;;;93.80;36.08;;;12.50;99.90;;;;;;5033510;28;20056;-77
2024/03/13 06:14:28;;;;;;;91.45;37.88;;;12.50;99.90;;;;;;5033351;28;20045;-77
2024/03/13 06:16:54;;;;;;;100.78;39.47;;;12.50;99.90;;;;;;5033703;28;20021;-77
2024/03/13 06:19:20;;;;;;;98.50;38.17;;;12.50;99.90;;;;;;5033258;28;20032;-77
2024/03/13 06:21:46;;;;;;;92.03;35.42;;;12.50;99.90;;;;;;5032889;28;20104;-77
2024/03/13 06:24:12;;;;;;;87.65;34.83;;;12.50;99.90;;;;;;5033483;28;20026;-77
2024/03/13 06:26:40;;;;;;;78.40;32.78;;;12.50;99.90;;;;;;5033440;28;20110;-77
2024/03/13 06:31:50;;;;;;;79.65;31.58;;;12.60;99.90;;;;;;5022506;28;20076;-77
2024/03/13 06:34:17;;;;;;;68.22;28.23;;;12.60;99.90;;;;;;5030613;28;20439;-77
2024/03/13 06:36:42;;;;;;;71.28;28.92;;;12.60;99.90;;;;;;5033335;28;20486;-77
2024/03/13 06:39:11;;;;;;;71.80;27.92;;;12.60;99.90;;;;;;5032962;28;20036;-76
2024/03/13 06:41:37;;;;;;;69.72;27.90;;;12.60;99.90;;;;;;5015299;28;20410;-77
2024/03/13 06:44:03;;;;;;;67.35;28.83;;;12.60;99.90;;;;;;5032399;28;20034;-77
2024/03/13 06:46:29;;;;;;;70.50;24.50;;;12.60;99.90;;;;;;5032672;28;20095;-77
2024/03/13 06:48:55;;;;;;;61.63;24.13;;;12.60;99.90;;;;;;5032840;28;20053;-76
2024/03/13 06:51:21;;;;;;;48.33;22.88;;;12.60;99.90;;;;;;5033101;28;20103;-77
2024/03/13 06:53:47;;;;;;;48.15;22.48;;;12.60;99.90;;;;;;5031966;28;20152;-78
2024/03/13 06:56:13;;;;;;;56.22;23.48;;;12.70;99.90;;;;;;5032841;28;20079;-77
2024/03/13 06:58:38;;;;;;;60.47;22.52;;;12.70;99.90;;;;;;5032480;28;20044;-77
2024/03/13 07:01:12;;;;;;;49.78;22.35;;;12.70;99.90;;;;;;5030520;28;20414;-78
2024/03/13 07:03:40;;;;;;;55.67;22.38;;;12.60;99.90;;;;;;5032176;28;20104;-78
2024/03/13 07:06:06;;;;;;;51.72;23.02;;;12.60;99.90;;;;;;5031618;28;20032;-77
2024/03/13 07:08:32;;;;;;;59.28;25.75;;;12.70;99.90;;;;;;5024204;28;20037;-77
2024/03/13 07:10:59;;;;;;;56.25;23.92;;;12.70;99.90;;;;;;5032124;28;20027;-77
2024/03/13 07:13:25;;;;;;;55.45;21.13;;;12.70;99.90;;;;;;5024105;28;20034;-78
2024/03/13 07:15:50;;;;;;;42.13;19.98;;;12.60;99.90;;;;;;5030725;28;20039;-77
2024/03/13 07:18:16;;;;;;;46.05;19.30;;;12.70;99.90;;;;;;5027689;28;20033;-79
2024/03/13 07:20:43;;;;;;;40.85;19.83;;;12.60;99.90;;;;;;5031530;28;20025;-78
2024/03/13 07:23:08;;;;;;;43.38;19.33;;;12.50;99.90;;;;;;5027700;28;20029;-79
2024/03/13 07:25:35;;;;;;;31.95;15.50;;;12.70;99.90;;;;;;5031962;28;20359;-79
2024/03/13 07:28:00;;;;;;;37.65;15.65;;;12.70;99.90;;;;;;5031603;28;20033;-80
2024/03/13 07:30:27;;;;;;;37.67;15.93;;;12.70;99.90;;;;;;5031601;28;20482;-80
2024/03/13 07:32:53;;;;;;;31.98;14.88;;;12.60;99.90;;;;;;5030955;28;20059;-79
2024/03/13 07:35:19;;;;;;;30.25;13.88;;;12.70;99.90;;;;;;5017710;28;20112;-80
2024/03/13 07:37:44;;;;;;;31.92;16.00;;;12.70;99.90;;;;;;5006242;28;20128;-80
2024/03/13 07:40:10;;;;;;;32.17;14.13;;;12.70;99.90;;;;;;5031831;28;20045;-80
2024/03/13 07:42:36;;;;;;;35.90;15.32;;;12.80;99.90;;;;;;5012449;28;20025;-80
2024/03/13 07:45:02;;;;;;;30.65;15.88;;;12.90;99.90;;;;;;5026386;28;20030;-81
2024/03/13 07:47:28;;;;;;;30.27;16.00;;;12.90;99.90;;;;;;5031185;28;20034;-80
2024/03/13 07:49:54;;;;;;;33.35;16.25;;;12.90;99.90;;;;;;5031779;28;20048;-80
2024/03/13 07:52:20;;;;;;;33.65;17.60;;;13.00;99.90;;;;;;5032186;28;20470;-80
2024/03/13 07:54:46;;;;;;;31.20;17.15;;;13.00;99.90;;;;;;5013286;28;20018;-81
2024/03/13 07:57:12;;;;;;;31.23;16.73;;;13.00;99.90;;;;;;5031265;28;20033;-80
2024/03/13 07:59:40;;;;;;;34.42;16.92;;;13.00;99.90;;;;;;5031425;28;20028;-81
2024/03/13 08:02:07;;;;;;;34.65;16.42;;;13.00;99.90;;;;;;5030899;28;20100;-81
2024/03/13 08:04:36;;;;;;;28.10;14.85;;;13.00;99.90;;;;;;5031919;28;20124;-80
2024/03/13 08:07:03;;;;;;;30.17;14.63;;;13.00;99.90;;;;;;5031556;28;20053;-80
2024/03/13 08:09:29;;;;;;;29.02;14.55;;;13.00;99.90;;;;;;5031677;28;20017;-81
2024/03/13 08:11:55;;;;;;;26.02;13.68;;;13.00;99.90;;;;;;5031546;28;20024;-79
2024/03/13 08:14:24;;;;;;;33.00;15.07;;;13.10;99.90;;;;;;5031679;28;20462;-81
2024/03/13 08:16:49;;;;;;;28.65;13.80;;;13.00;99.90;;;;;;5030937;28;20437;-81
2024/03/13 08:19:15;;;;;;;27.70;12.65;;;13.10;99.90;;;;;;5031383;28;20017;-81
2024/03/13 08:21:41;;;;;;;24.58;12.20;;;13.00;99.90;;;;;;5030924;28;20489;-81
2024/03/13 08:24:07;;;;;;;27.95;12.60;;;13.10;99.90;;;;;;5030773;28;20071;-81
2024/03/13 08:26:33;;;;;;;23.23;12.35;;;13.10;99.90;;;;;;5030699;28;20071;-81
2024/03/13 08:28:59;;;;;;;30.27;13.68;;;13.10;99.90;;;;;;5031565;28;20048;-80
2024/03/13 08:31:25;;;;;;;25.15;12.50;;;13.10;99.90;;;;;;5029964;28;20025;-80
2024/03/13 08:33:53;;;;;;;32.22;12.90;;;13.00;99.90;;;;;;5030971;28;20030;-80
2024/03/13 08:36:19;;;;;;;26.52;13.65;;;13.10;99.90;;;;;;5021980;28;20021;-81
2024/03/13 08:38:44;;;;;;;30.75;14.90;;;13.00;99.90;;;;;;5013745;28;20036;-82
2024/03/13 08:41:16;;;;;;;34.97;16.75;;;13.10;99.90;;;;;;5030966;28;20021;-81
2024/03/13 08:43:46;;;;;;;35.17;16.50;;;13.10;99.90;;;;;;5019389;28;20041;-81
2024/03/13 08:46:13;;;;;;;35.67;17.90;;;13.10;99.90;;;;;;5034445;28;20409;-79
2024/03/13 08:48:39;;;;;;;32.28;18.95;;;13.10;99.90;;;;;;5033604;28;20029;-82
2024/03/13 08:51:09;;;;;;;29.30;18.77;;;13.10;99.90;;;;;;5035261;28;20390;-80
2024/03/13 08:53:37;;;;;;;31.77;18.58;;;13.20;99.90;;;;;;5034628;28;20540;-77
2024/03/13 08:56:04;;;;;;;36.17;18.63;;;13.10;99.90;;;;;;5035111;28;20025;-82
2024/03/13 08:58:30;;;;;;;35.33;19.27;;;13.20;99.90;;;;;;5033005;28;20017;-82
2024/03/13 09:00:55;;;;;;;41.92;20.05;;;13.20;99.90;;;;;;5034655;28;20024;-80
2024/03/13 09:03:23;;;;;;;37.00;20.90;;;13.10;99.90;;;;;;5033370;28;20017;-79
2024/03/13 09:05:51;;;;;;;34.90;18.85;;;13.20;99.90;;;;;;5033510;28;20116;-78
2024/03/13 09:08:18;;;;;;;34.88;19.85;;;13.20;99.90;;;;;;5031829;28;20041;-79
2024/03/13 09:10:44;;;;;;;36.85;19.95;;;13.10;99.90;;;;;;5033120;28;20025;-78
2024/03/13 09:13:12;;;;;;;32.03;18.02;;;13.10;99.90;;;;;;5033003;28;20041;-79
2024/03/13 09:15:38;;;;;;;34.45;16.88;;;13.20;99.90;;;;;;5033954;28;20107;-79
2024/03/13 09:18:04;;;;;;;31.85;16.27;;;13.20;99.90;;;;;;5034670;28;20473;-78
2024/03/13 09:20:30;;;;;;;31.30;16.13;;;13.20;99.90;;;;;;5036859;28;20397;-77
2024/03/13 09:22:56;;;;;;;32.63;16.70;;;13.30;99.90;;;;;;5033923;28;20026;-78
2024/03/13 09:25:22;;;;;;;31.35;15.55;;;13.30;99.90;;;;;;5033916;28;20041;-77
2024/03/13 09:27:47;;;;;;;26.27;14.82;;;13.20;99.90;;;;;;5032113;28;20044;-78
2024/03/13 09:30:13;;;;;;;32.72;15.45;;;13.30;99.90;;;;;;5023568;28;20098;-77
2024/03/13 09:32:40;;;;;;;26.27;13.55;;;13.30;99.90;;;;;;5034499;28;20032;-78
2024/03/13 09:35:09;;;;;;;29.25;13.75;;;13.30;99.90;;;;;;5033692;28;20013;-79
2024/03/13 09:37:37;;;;;;;27.52;14.20;;;13.40;99.90;;;;;;5034118;28;20034;-82
2024/03/13 09:40:04;;;;;;;24.42;12.60;;;13.40;99.90;;;;;;5034186;28;20028;-78
2024/03/13 09:42:36;;;;;;;20.13;12.05;;;13.50;99.90;;;;;;5034157;28;20526;-78
2024/03/13 09:45:03;;;;;;;23.52;12.23;;;13.40;99.90;;;;;;5027523;28;20036;-79
2024/03/13 09:47:31;;;;;;;24.25;12.30;;;13.50;99.90;;;;;;5034023;28;20030;-78
2024/03/13 09:49:58;;;;;;;20.98;11.88;;;13.40;99.90;;;;;;5034074;28;20021;-79
2024/03/13 09:52:28;;;;;;;22.08;11.35;;;13.50;99.90;;;;;;5033955;28;20021;-79
2024/03/13 09:54:58;;;;;;;23.90;11.93;;;13.40;99.90;;;;;;5023761;28;20018;-80
2024/03/13 09:57:27;;;;;;;17.85;10.15;;;13.50;99.90;;;;;;5035756;28;20089;-79
2024/03/13 09:59:56;;;;;;;20.58;10.90;;;13.50;99.90;;;;;;5033428;28;20026;-82
2024/03/13 10:02:27;;;;;;;19.42;10.40;;;13.50;99.90;;;;;;5033561;28;20029;-79
2024/03/13 10:04:53;;;;;;;20.52;10.55;;;13.50;99.90;;;;;;5033744;28;20032;-80
2024/03/13 10:07:20;;;;;;;18.65;10.43;;;13.50;99.90;;;;;;5015375;28;20029;-80
2024/03/13 10:09:49;;;;;;;17.83;10.38;;;13.60;99.90;;;;;;5021394;28;20022;-79
2024/03/13 10:12:21;;;;;;;20.83;10.80;;;13.60;99.90;;;;;;5033248;28;20032;-79
2024/03/13 10:14:50;;;;;;;20.17;11.00;;;13.60;99.90;;;;;;5020571;28;20025;-82
2024/03/13 10:17:18;;;;;;;16.70;10.30;;;13.60;99.90;;;;;;5033485;28;20367;-82
2024/03/13 10:19:48;;;;;;;19.73;10.57;;;13.50;99.90;;;;;;5033789;28;20466;-79
2024/03/13 10:22:14;;;;;;;21.55;12.70;;;13.50;99.90;;;;;;5033732;28;20031;-82
2024/03/13 10:24:42;;;;;;;18.52;11.15;;;13.60;99.90;;;;;;5033803;28;20463;-89
2024/03/13 10:27:13;;;;;;;17.60;11.88;;;13.70;99.90;;;;;;5026327;28;20044;-84
2024/03/13 10:29:42;;;;;;;15.90;10.18;;;13.70;99.90;;;;;;5026120;28;20770;-82
2024/03/13 10:32:11;;;;;;;16.50;10.60;;;13.70;99.90;;;;;;5033034;28;20104;-80
2024/03/13 10:34:37;;;;;;;18.13;9.77;;;13.70;99.90;;;;;;5033232;28;20100;-86
2024/03/13 10:37:11;;;;;;;15.07;8.70;;;13.70;99.90;;;;;;5033659;28;20068;-86
2024/03/13 10:39:38;;;;;;;11.98;7.63;;;13.60;99.90;;;;;;5032927;28;20112;-87
2024/03/13 10:42:07;;;;;;;17.50;7.95;;;13.70;99.90;;;;;;5033076;28;20030;-81
2024/03/13 10:44:33;;;;;;;14.70;6.53;;;13.70;99.90;;;;;;5032951;28;20129;-80
2024/03/13 10:47:00;;;;;;;10.68;6.03;;;13.60;99.90;;;;;;5026349;28;20042;-87
2024/03/13 10:49:28;;;;;;;8.02;5.72;;;13.70;99.90;;;;;;5027936;28;20039;-82
2024/03/13 10:51:57;;;;;;;9.43;6.38;;;13.70;99.90;;;;;;5033374;28;20026;-83
2024/03/13 10:54:27;;;;;;;12.13;6.45;;;13.70;99.90;;;;;;5032923;28;20385;-86
2024/03/13 10:56:52;;;;;;;6.88;5.22;;;13.80;99.90;;;;;;5032777;28;20493;-83
2024/03/13 10:59:19;;;;;;;10.63;5.70;;;13.90;99.90;;;;;;5032670;28;20021;-83
2024/03/13 11:01:49;;;;;;;8.07;4.70;;;13.90;99.90;;;;;;5033316;28;20045;-82
2024/03/13 11:04:16;;;;;;;9.25;5.47;;;14.00;99.90;;;;;;5032848;28;20017;-80
2024/03/13 11:06:41;;;;;;;14.30;5.45;;;14.00;99.90;;;;;;5014681;28;20055;-82
2024/03/13 11:09:20;;;;;;;10.23;4.53;;;14.10;99.90;;;;;;5032192;28;20533;-85
2024/03/13 11:11:52;;;;;;;8.20;4.13;;;14.20;99.90;;;;;;5032834;28;20029;-86
2024/03/13 11:14:22;;;;;;;12.10;4.40;;;14.20;99.90;;;;;;5014553;28;20052;-80
2024/03/13 11:16:54;;;;;;;8.02;4.05;;;14.20;99.90;;;;;;5032724;28;20091;-83
2024/03/13 11:19:23;;;;;;;5.18;3.55;;;14.20;99.90;;;;;;5013183;28;20428;-75
2024/03/13 11:21:57;;;;;;;10.25;3.80;;;14.20;99.90;;;;;;5032131;28;20108;-75
2024/03/13 11:24:25;;;;;;;7.68;3.67;;;14.20;99.90;;;;;;5031977;28;20026;-76
2024/03/13 11:27:18;;;;;;;12.85;4.53;;;14.30;99.90;;;;;;5032389;28;20057;-75
2024/03/13 11:29:49;;;;;;;7.18;3.40;;;14.30;99.90;;;;;;5027326;28;20045;-74
2024/03/13 11:32:15;;;;;;;6.78;4.20;;;14.30;99.90;;;;;;5024526;28;20021;-75
2024/03/13 11:34:42;;;;;;;7.25;4.80;;;14.30;99.90;;;;;;5030775;28;20017;-75
2024/03/13 11:37:10;;;;;;;8.25;4.70;;;14.30;99.90;;;;;;5013418;28;20029;-74
2024/03/13 11:39:38;;;;;;;8.52;5.15;;;14.30;99.90;;;;;;5031194;28;20029;-74
2024/03/13 11:42:14;;;;;;;8.85;5.25;;;14.30;99.90;;;;;;5007417;28;20022;-75
2024/03/13 11:44:49;;;;;;;13.05;5.22;;;14.20;99.90;;;;;;5019218;28;20026;-75
2024/03/13 11:47:16;;;;;;;10.88;5.07;;;14.20;99.90;;;;;;5029867;28;20057;-75
2024/03/13 11:49:42;;;;;;;8.48;4.85;;;14.10;99.90;;;;;;5031642;28;20072;-75
2024/03/13 11:52:15;;;;;;;10.32;4.97;;;14.10;99.90;;;;;;5026912;28;20105;-75
2024/03/13 11:54:43;;;;;;;7.82;4.30;;;14.10;99.90;;;;;;5026750;28;20025;-75
2024/03/13 11:57:13;;;;;;;7.00;4.30;;;14.20;99.90;;;;;;5031322;28;20072;-75
2024/03/13 11:59:56;;;;;;;6.78;4.43;;;14.10;99.90;;;;;;5016103;28;20036;-75
2024/03/13 12:02:28;;;;;;;9.30;4.13;;;14.10;99.90;;;;;;4994085;28;20022;-75
2024/03/13 12:05:04;;;;;;;6.43;3.55;;;14.20;99.90;;;;;;5020354;28;20104;-75
2024/03/13 12:07:36;;;;;;;5.53;2.90;;;14.30;99.90;;;;;;5019484;28;20064;-75
2024/03/13 12:10:02;;;;;;;7.63;2.90;;;14.40;99.90;;;;;;5018294;28;20029;-75
2024/03/13 12:12:28;;;;;;;4.55;2.50;;;14.40;99.90;;;;;;5018995;28;20032;-75
2024/03/13 12:14:55;;;;;;;6.95;2.35;;;14.40;99.90;;;;;;5018739;28;20112;-75
2024/03/13 12:17:21;;;;;;;6.03;2.80;;;14.50;99.90;;;;;;5019772;28;20030;-75
2024/03/13 12:19:47;;;;;;;5.97;3.22;;;14.60;99.90;;;;;;5023284;28;20475;-75
2024/03/13 12:22:13;;;;;;;6.05;3.17;;;14.70;99.90;;;;;;5019965;28;20072;-75
2024/03/13 12:24:40;;;;;;;3.72;2.80;;;14.80;99.90;;;;;;5023308;28;20018;-76
2024/03/13 12:27:07;;;;;;;6.50;3.03;;;14.90;99.90;;;;;;5021337;28;20036;-75
2024/03/13 12:29:37;;;;;;;8.50;3.70;;;14.90;99.90;;;;;;5020594;28;20029;-75
2024/03/13 12:32:03;;;;;;;7.10;3.03;;;15.00;99.90;;;;;;5023568;28;20025;-75
2024/03/13 12:34:29;;;;;;;6.32;3.30;;;15.00;99.90;;;;;;5021113;28;20482;-75
2024/03/13 12:36:56;;;;;;;6.18;3.10;;;15.00;99.90;;;;;;5022756;28;20061;-75
2024/03/13 12:39:22;;;;;;;6.40;3.40;;;15.00;99.90;;;;;;5023210;28;20429;-75
2024/03/13 12:41:48;;;;;;;8.27;3.95;;;14.90;99.90;;;;;;5018440;28;20032;-75
2024/03/13 12:44:15;;;;;;;10.27;3.60;;;14.90;99.90;;;;;;5007837;28;20022;-75
2024/03/13 12:46:41;;;;;;;7.93;3.30;;;14.90;99.90;;;;;;5021913;28;20099;-75
2024/03/13 12:49:13;;;;;;;5.57;3.67;;;14.90;99.90;;;;;;5019845;28;20030;-75
2024/03/13 12:51:39;;;;;;;7.10;3.53;;;14.90;99.90;;;;;;5024164;28;20018;-75